sensor_id;sensor_type;location;lat;lon;timestamp;temperature;humidity
12907;DHT22;6521;50.498;8.474;2022-10-16T00:00:20;14.61;91.19
12907;DHT22;6521;50.498;8.474;2022-10-16T00:02:51;14.59;91.19
12907;DHT22;6521;50.498;8.474;2022-10-16T00:05:21;14.53;91.20
12907;DHT22;6521;50.498;8.474;2022-10-16T00:07:52;14.47;91.40
12907;DHT22;6521;50.498;8.474;2022-10-16T00:10:23;14.43;91.42
12907;DHT22;6521;50.498;8.474;2022-10-16T00:12:54;14.41;91.48
12907;DHT22;6521;50.498;8.474;2022-10-16T00:15:25;14.40;91.62
12907;DHT22;6521;50.498;8.474;2022-10-16T00:17:55;14.34;91.79
12907;DHT22;6521;50.498;8.474;2022-10-16T00:20:26;14.29;91.83
12907;DHT22;6521;50.498;8.474;2022-10-16T00:22:57;14.26;91.88
12907;DHT22;6521;50.498;8.474;2022-10-16T00:25:28;14.25;91.88
12907;DHT22;6521;50.498;8.474;2022-10-16T00:28:00;14.23;91.88
12907;DHT22;6521;50.498;8.474;2022-10-16T00:30:31;14.19;92.15
12907;DHT22;6521;50.498;8.474;2022-10-16T00:33:02;14.18;92.07
12907;DHT22;6521;50.498;8.474;2022-10-16T00:35:33;14.16;92.07
12907;DHT22;6521;50.498;8.474;2022-10-16T00:38:04;14.16;92.09
12907;DHT22;6521;50.498;8.474;2022-10-16T00:40:34;14.09;92.28
12907;DHT22;6521;50.498;8.474;2022-10-16T00:43:14;14.11;92.25
12907;DHT22;6521;50.498;8.474;2022-10-16T00:45:45;14.08;92.19
12907;DHT22;6521;50.498;8.474;2022-10-16T00:48:15;14.08;92.25
12907;DHT22;6521;50.498;8.474;2022-10-16T00:50:46;14.01;92.29
12907;DHT22;6521;50.498;8.474;2022-10-16T00:53:17;13.98;92.25
12907;DHT22;6521;50.498;8.474;2022-10-16T00:55:48;13.92;92.44
12907;DHT22;6521;50.498;8.474;2022-10-16T00:58:19;13.92;92.40
12907;DHT22;6521;50.498;8.474;2022-10-16T01:00:50;13.91;92.59
12907;DHT22;6521;50.498;8.474;2022-10-16T01:03:30;13.88;92.60
12907;DHT22;6521;50.498;8.474;2022-10-16T01:11:33;13.83;92.73
12907;DHT22;6521;50.498;8.474;2022-10-16T01:14:14;13.85;92.80
12907;DHT22;6521;50.498;8.474;2022-10-16T01:16:52;13.81;92.64
12907;DHT22;6521;50.498;8.474;2022-10-16T01:19:44;13.79;92.68
12907;DHT22;6521;50.498;8.474;2022-10-16T01:22:19;13.77;92.78
12907;DHT22;6521;50.498;8.474;2022-10-16T01:24:51;13.74;92.86
12907;DHT22;6521;50.498;8.474;2022-10-16T01:27:27;13.74;92.89
12907;DHT22;6521;50.498;8.474;2022-10-16T01:30:04;13.75;92.92
12907;DHT22;6521;50.498;8.474;2022-10-16T01:32:41;13.74;92.83
12907;DHT22;6521;50.498;8.474;2022-10-16T01:35:25;13.67;92.83
12907;DHT22;6521;50.498;8.474;2022-10-16T01:38:02;13.68;92.98
12907;DHT22;6521;50.498;8.474;2022-10-16T01:40:35;13.68;93.01
12907;DHT22;6521;50.498;8.474;2022-10-16T01:43:15;13.64;92.95
12907;DHT22;6521;50.498;8.474;2022-10-16T01:45:48;13.61;92.97
12907;DHT22;6521;50.498;8.474;2022-10-16T01:48:20;13.58;92.99
12907;DHT22;6521;50.498;8.474;2022-10-16T01:50:59;13.57;93.22
12907;DHT22;6521;50.498;8.474;2022-10-16T01:53:32;13.62;93.28
12907;DHT22;6521;50.498;8.474;2022-10-16T01:56:06;13.68;93.28
12907;DHT22;6521;50.498;8.474;2022-10-16T01:58:43;13.71;92.99
12907;DHT22;6521;50.498;8.474;2022-10-16T02:01:16;13.71;93.03
12907;DHT22;6521;50.498;8.474;2022-10-16T02:03:52;13.72;93.01
12907;DHT22;6521;50.498;8.474;2022-10-16T02:06:23;13.72;92.98
12907;DHT22;6521;50.498;8.474;2022-10-16T02:08:55;13.77;92.90
12907;DHT22;6521;50.498;8.474;2022-10-16T02:11:26;13.75;92.92
12907;DHT22;6521;50.498;8.474;2022-10-16T02:14:07;13.75;92.93
12907;DHT22;6521;50.498;8.474;2022-10-16T02:16:43;13.72;92.84
12907;DHT22;6521;50.498;8.474;2022-10-16T02:19:17;13.72;92.88
12907;DHT22;6521;50.498;8.474;2022-10-16T02:21:57;13.71;92.95
12907;DHT22;6521;50.498;8.474;2022-10-16T02:30:30;13.81;92.66
12907;DHT22;6521;50.498;8.474;2022-10-16T02:33:05;13.79;92.48
12907;DHT22;6521;50.498;8.474;2022-10-16T02:35:37;13.79;92.45
12907;DHT22;6521;50.498;8.474;2022-10-16T02:38:09;13.78;92.43
12907;DHT22;6521;50.498;8.474;2022-10-16T02:40:41;13.78;92.45
12907;DHT22;6521;50.498;8.474;2022-10-16T02:43:13;13.82;92.23
12907;DHT22;6521;50.498;8.474;2022-10-16T02:45:44;13.79;92.28
12907;DHT22;6521;50.498;8.474;2022-10-16T02:48:15;13.81;92.26
12907;DHT22;6521;50.498;8.474;2022-10-16T02:50:45;13.83;92.29
12907;DHT22;6521;50.498;8.474;2022-10-16T02:53:16;13.83;92.23
12907;DHT22;6521;50.498;8.474;2022-10-16T02:55:47;13.85;92.10
12907;DHT22;6521;50.498;8.474;2022-10-16T02:58:18;13.88;91.91
12907;DHT22;6521;50.498;8.474;2022-10-16T03:00:49;13.88;91.74
12907;DHT22;6521;50.498;8.474;2022-10-16T03:03:19;13.92;91.62
12907;DHT22;6521;50.498;8.474;2022-10-16T03:05:50;13.95;91.55
12907;DHT22;6521;50.498;8.474;2022-10-16T03:08:21;13.97;91.40
12907;DHT22;6521;50.498;8.474;2022-10-16T03:10:54;13.98;91.44
12907;DHT22;6521;50.498;8.474;2022-10-16T03:13:24;14.02;91.39
12907;DHT22;6521;50.498;8.474;2022-10-16T03:15:55;14.06;91.26
12907;DHT22;6521;50.498;8.474;2022-10-16T03:18:26;14.01;91.54
12907;DHT22;6521;50.498;8.474;2022-10-16T03:20:56;13.99;91.59
12907;DHT22;6521;50.498;8.474;2022-10-16T03:23:27;13.98;91.28
12907;DHT22;6521;50.498;8.474;2022-10-16T03:25:58;14.01;90.93
12907;DHT22;6521;50.498;8.474;2022-10-16T03:28:29;14.02;90.78
12907;DHT22;6521;50.498;8.474;2022-10-16T03:31:00;13.99;90.79
12907;DHT22;6521;50.498;8.474;2022-10-16T03:33:31;13.94;90.95
12907;DHT22;6521;50.498;8.474;2022-10-16T03:36:01;13.91;91.45
12907;DHT22;6521;50.498;8.474;2022-10-16T03:38:32;13.88;91.71
12907;DHT22;6521;50.498;8.474;2022-10-16T03:41:03;13.92;91.96
12907;DHT22;6521;50.498;8.474;2022-10-16T03:43:34;13.82;92.11
12907;DHT22;6521;50.498;8.474;2022-10-16T03:46:05;13.88;91.02
12907;DHT22;6521;50.498;8.474;2022-10-16T03:48:36;13.88;90.38
12907;DHT22;6521;50.498;8.474;2022-10-16T03:51:07;13.74;90.25
12907;DHT22;6521;50.498;8.474;2022-10-16T03:53:38;13.71;90.35
12907;DHT22;6521;50.498;8.474;2022-10-16T03:56:09;13.62;89.92
12907;DHT22;6521;50.498;8.474;2022-10-16T03:58:40;13.60;90.44
12907;DHT22;6521;50.498;8.474;2022-10-16T04:01:10;13.55;90.33
12907;DHT22;6521;50.498;8.474;2022-10-16T04:03:41;13.48;90.86
12907;DHT22;6521;50.498;8.474;2022-10-16T04:06:12;13.46;90.80
12907;DHT22;6521;50.498;8.474;2022-10-16T04:08:43;13.43;90.78
12907;DHT22;6521;50.498;8.474;2022-10-16T04:11:14;13.36;90.97
12907;DHT22;6521;50.498;8.474;2022-10-16T04:13:44;13.34;90.88
12907;DHT22;6521;50.498;8.474;2022-10-16T04:16:15;13.34;90.94
12907;DHT22;6521;50.498;8.474;2022-10-16T04:18:46;13.31;91.10
12907;DHT22;6521;50.498;8.474;2022-10-16T04:21:17;13.31;91.19
12907;DHT22;6521;50.498;8.474;2022-10-16T04:23:48;13.31;91.36
12907;DHT22;6521;50.498;8.474;2022-10-16T04:26:19;13.27;91.38
12907;DHT22;6521;50.498;8.474;2022-10-16T04:28:50;13.24;91.50
12907;DHT22;6521;50.498;8.474;2022-10-16T04:31:21;13.26;91.59
12907;DHT22;6521;50.498;8.474;2022-10-16T04:33:52;13.27;91.53
12907;DHT22;6521;50.498;8.474;2022-10-16T04:36:23;13.22;91.57
12907;DHT22;6521;50.498;8.474;2022-10-16T04:38:53;13.22;91.76
12907;DHT22;6521;50.498;8.474;2022-10-16T04:41:24;13.24;91.63
12907;DHT22;6521;50.498;8.474;2022-10-16T04:43:55;13.23;91.69
12907;DHT22;6521;50.498;8.474;2022-10-16T04:46:26;13.20;91.86
12907;DHT22;6521;50.498;8.474;2022-10-16T04:48:56;13.17;91.97
12907;DHT22;6521;50.498;8.474;2022-10-16T04:51:27;13.16;92.10
12907;DHT22;6521;50.498;8.474;2022-10-16T04:53:58;13.20;92.32
12907;DHT22;6521;50.498;8.474;2022-10-16T04:56:29;13.12;92.37
12907;DHT22;6521;50.498;8.474;2022-10-16T04:59:00;13.09;92.56
12907;DHT22;6521;50.498;8.474;2022-10-16T05:01:30;13.10;92.71
12907;DHT22;6521;50.498;8.474;2022-10-16T05:04:01;13.10;92.69
12907;DHT22;6521;50.498;8.474;2022-10-16T05:06:32;13.12;92.62
12907;DHT22;6521;50.498;8.474;2022-10-16T05:09:06;13.14;92.66
12907;DHT22;6521;50.498;8.474;2022-10-16T05:11:37;13.16;92.78
12907;DHT22;6521;50.498;8.474;2022-10-16T05:14:07;13.16;92.76
12907;DHT22;6521;50.498;8.474;2022-10-16T05:16:38;13.12;92.67
12907;DHT22;6521;50.498;8.474;2022-10-16T05:19:09;13.12;92.53
12907;DHT22;6521;50.498;8.474;2022-10-16T05:21:40;13.13;92.57
12907;DHT22;6521;50.498;8.474;2022-10-16T05:24:10;13.13;92.63
12907;DHT22;6521;50.498;8.474;2022-10-16T05:26:41;13.14;92.69
12907;DHT22;6521;50.498;8.474;2022-10-16T05:29:12;13.14;92.70
12907;DHT22;6521;50.498;8.474;2022-10-16T05:31:43;13.14;92.75
12907;DHT22;6521;50.498;8.474;2022-10-16T05:34:14;13.14;92.70
12907;DHT22;6521;50.498;8.474;2022-10-16T05:36:44;13.17;92.70
12907;DHT22;6521;50.498;8.474;2022-10-16T05:39:15;13.17;92.61
12907;DHT22;6521;50.498;8.474;2022-10-16T05:41:49;13.16;92.55
12907;DHT22;6521;50.498;8.474;2022-10-16T05:44:20;13.16;92.70
12907;DHT22;6521;50.498;8.474;2022-10-16T05:46:51;13.16;92.72
12907;DHT22;6521;50.498;8.474;2022-10-16T05:49:21;13.19;92.63
12907;DHT22;6521;50.498;8.474;2022-10-16T05:51:52;13.20;92.70
12907;DHT22;6521;50.498;8.474;2022-10-16T05:54:23;13.19;92.79
12907;DHT22;6521;50.498;8.474;2022-10-16T05:56:54;13.22;92.77
12907;DHT22;6521;50.498;8.474;2022-10-16T05:59:24;13.17;92.86
12907;DHT22;6521;50.498;8.474;2022-10-16T06:01:55;13.19;92.82
12907;DHT22;6521;50.498;8.474;2022-10-16T06:04:26;13.16;92.87
12907;DHT22;6521;50.498;8.474;2022-10-16T06:06:59;13.19;93.00
12907;DHT22;6521;50.498;8.474;2022-10-16T06:09:33;13.17;93.08
12907;DHT22;6521;50.498;8.474;2022-10-16T06:12:04;13.19;93.00
12907;DHT22;6521;50.498;8.474;2022-10-16T06:14:34;13.20;93.15
12907;DHT22;6521;50.498;8.474;2022-10-16T06:17:05;13.17;93.25
12907;DHT22;6521;50.498;8.474;2022-10-16T06:19:36;13.20;93.35
12907;DHT22;6521;50.498;8.474;2022-10-16T06:22:07;13.22;93.49
12907;DHT22;6521;50.498;8.474;2022-10-16T06:24:37;13.26;93.40
12907;DHT22;6521;50.498;8.474;2022-10-16T06:27:08;13.27;93.50
12907;DHT22;6521;50.498;8.474;2022-10-16T06:29:39;13.31;93.51
12907;DHT22;6521;50.498;8.474;2022-10-16T06:32:09;13.30;93.62
12907;DHT22;6521;50.498;8.474;2022-10-16T06:34:40;13.36;93.66
12907;DHT22;6521;50.498;8.474;2022-10-16T06:37:11;13.39;93.66
12907;DHT22;6521;50.498;8.474;2022-10-16T06:39:42;13.39;93.67
12907;DHT22;6521;50.498;8.474;2022-10-16T06:42:12;13.37;93.74
12907;DHT22;6521;50.498;8.474;2022-10-16T06:44:45;13.41;93.86
12907;DHT22;6521;50.498;8.474;2022-10-16T06:47:16;13.44;93.87
12907;DHT22;6521;50.498;8.474;2022-10-16T06:49:46;13.46;93.89
12907;DHT22;6521;50.498;8.474;2022-10-16T06:52:17;13.47;93.88
12907;DHT22;6521;50.498;8.474;2022-10-16T06:54:49;13.51;93.91
12907;DHT22;6521;50.498;8.474;2022-10-16T06:57:20;13.54;93.92
12907;DHT22;6521;50.498;8.474;2022-10-16T06:59:50;13.57;93.91
12907;DHT22;6521;50.498;8.474;2022-10-16T07:02:21;13.61;93.81
12907;DHT22;6521;50.498;8.474;2022-10-16T07:04:52;13.61;93.79
12907;DHT22;6521;50.498;8.474;2022-10-16T07:07:24;13.64;94.02
12907;DHT22;6521;50.498;8.474;2022-10-16T07:09:59;13.65;94.08
12907;DHT22;6521;50.498;8.474;2022-10-16T07:12:30;13.70;94.13
12907;DHT22;6521;50.498;8.474;2022-10-16T07:15:01;13.78;94.16
12907;DHT22;6521;50.498;8.474;2022-10-16T07:17:32;13.81;94.20
12907;DHT22;6521;50.498;8.474;2022-10-16T07:20:03;13.91;94.17
12907;DHT22;6521;50.498;8.474;2022-10-16T07:22:33;13.91;94.20
12907;DHT22;6521;50.498;8.474;2022-10-16T07:25:04;13.97;94.16
12907;DHT22;6521;50.498;8.474;2022-10-16T07:27:35;13.99;94.07
12907;DHT22;6521;50.498;8.474;2022-10-16T07:30:06;14.02;94.11
12907;DHT22;6521;50.498;8.474;2022-10-16T07:32:37;14.02;94.09
12907;DHT22;6521;50.498;8.474;2022-10-16T07:35:11;14.04;94.26
12907;DHT22;6521;50.498;8.474;2022-10-16T07:37:45;14.09;94.09
12907;DHT22;6521;50.498;8.474;2022-10-16T07:40:16;14.09;94.02
12907;DHT22;6521;50.498;8.474;2022-10-16T07:42:47;14.11;94.02
12907;DHT22;6521;50.498;8.474;2022-10-16T07:45:18;14.09;94.13
12907;DHT22;6521;50.498;8.474;2022-10-16T07:47:48;14.13;94.27
12907;DHT22;6521;50.498;8.474;2022-10-16T07:50:19;14.13;94.35
12907;DHT22;6521;50.498;8.474;2022-10-16T07:52:50;14.18;94.23
12907;DHT22;6521;50.498;8.474;2022-10-16T07:55:21;14.19;94.33
12907;DHT22;6521;50.498;8.474;2022-10-16T07:57:52;14.26;94.35
12907;DHT22;6521;50.498;8.474;2022-10-16T08:00:22;14.33;94.29
12907;DHT22;6521;50.498;8.474;2022-10-16T08:02:53;14.37;94.29
12907;DHT22;6521;50.498;8.474;2022-10-16T08:05:24;14.39;94.33
12907;DHT22;6521;50.498;8.474;2022-10-16T08:07:55;14.40;94.40
12907;DHT22;6521;50.498;8.474;2022-10-16T08:10:27;14.46;94.67
12907;DHT22;6521;50.498;8.474;2022-10-16T08:12:58;14.55;94.75
12907;DHT22;6521;50.498;8.474;2022-10-16T08:15:29;14.60;94.63
12907;DHT22;6521;50.498;8.474;2022-10-16T08:18:02;14.71;94.47
12907;DHT22;6521;50.498;8.474;2022-10-16T08:20:33;14.83;94.37
12907;DHT22;6521;50.498;8.474;2022-10-16T08:23:04;14.83;94.39
12907;DHT22;6521;50.498;8.474;2022-10-16T08:25:35;14.90;94.22
12907;DHT22;6521;50.498;8.474;2022-10-16T08:28:08;14.97;93.91
12907;DHT22;6521;50.498;8.474;2022-10-16T08:30:39;14.97;93.84
12907;DHT22;6521;50.498;8.474;2022-10-16T08:33:11;15.07;93.61
12907;DHT22;6521;50.498;8.474;2022-10-16T08:35:42;14.99;93.19
12907;DHT22;6521;50.498;8.474;2022-10-16T08:38:12;15.05;93.33
12907;DHT22;6521;50.498;8.474;2022-10-16T08:40:43;15.07;93.26
12907;DHT22;6521;50.498;8.474;2022-10-16T08:43:34;15.04;93.52
12907;DHT22;6521;50.498;8.474;2022-10-16T08:46:31;15.07;93.56
12907;DHT22;6521;50.498;8.474;2022-10-16T08:49:11;15.15;93.45
12907;DHT22;6521;50.498;8.474;2022-10-16T08:51:43;15.25;93.12
12907;DHT22;6521;50.498;8.474;2022-10-16T08:54:32;15.35;92.68
12907;DHT22;6521;50.498;8.474;2022-10-16T08:57:11;15.43;92.63
12907;DHT22;6521;50.498;8.474;2022-10-16T08:59:42;15.56;91.97
12907;DHT22;6521;50.498;8.474;2022-10-16T09:05:05;15.70;91.92
12907;DHT22;6521;50.498;8.474;2022-10-16T09:13:01;16.13;91.40
12907;DHT22;6521;50.498;8.474;2022-10-16T09:15:43;16.29;91.21
12907;DHT22;6521;50.498;8.474;2022-10-16T09:18:29;16.34;89.50
12907;DHT22;6521;50.498;8.474;2022-10-16T09:21:12;16.31;90.05
12907;DHT22;6521;50.498;8.474;2022-10-16T09:23:45;16.31;89.38
12907;DHT22;6521;50.498;8.474;2022-10-16T09:26:17;16.18;89.57
12907;DHT22;6521;50.498;8.474;2022-10-16T09:28:51;16.11;89.76
12907;DHT22;6521;50.498;8.474;2022-10-16T09:31:22;16.18;89.86
12907;DHT22;6521;50.498;8.474;2022-10-16T09:33:58;16.13;89.30
12907;DHT22;6521;50.498;8.474;2022-10-16T09:36:35;16.08;89.21
12907;DHT22;6521;50.498;8.474;2022-10-16T09:39:09;16.01;89.61
12907;DHT22;6521;50.498;8.474;2022-10-16T09:41:42;16.00;90.28
12907;DHT22;6521;50.498;8.474;2022-10-16T09:44:26;16.10;90.35
12907;DHT22;6521;50.498;8.474;2022-10-16T09:47:05;16.20;89.80
12907;DHT22;6521;50.498;8.474;2022-10-16T09:49:36;16.31;90.05
12907;DHT22;6521;50.498;8.474;2022-10-16T09:52:14;16.40;89.57
12907;DHT22;6521;50.498;8.474;2022-10-16T09:54:53;16.49;89.41
12907;DHT22;6521;50.498;8.474;2022-10-16T09:57:25;16.54;89.34
12907;DHT22;6521;50.498;8.474;2022-10-16T09:59:57;16.58;88.88
12907;DHT22;6521;50.498;8.474;2022-10-16T10:02:31;16.62;88.45
12907;DHT22;6521;50.498;8.474;2022-10-16T10:05:05;16.58;88.14
12907;DHT22;6521;50.498;8.474;2022-10-16T10:07:44;16.52;88.61
12907;DHT22;6521;50.498;8.474;2022-10-16T10:10:26;16.56;87.97
12907;DHT22;6521;50.498;8.474;2022-10-16T10:12:57;16.58;87.90
12907;DHT22;6521;50.498;8.474;2022-10-16T10:15:33;16.66;88.48
12907;DHT22;6521;50.498;8.474;2022-10-16T10:18:16;16.86;87.95
12907;DHT22;6521;50.498;8.474;2022-10-16T10:21:02;17.02;87.58
12907;DHT22;6521;50.498;8.474;2022-10-16T10:23:33;17.10;86.53
12907;DHT22;6521;50.498;8.474;2022-10-16T10:26:13;17.31;85.87
12907;DHT22;6521;50.498;8.474;2022-10-16T10:28:58;17.47;84.26
12907;DHT22;6521;50.498;8.474;2022-10-16T10:31:42;17.84;83.79
12907;DHT22;6521;50.498;8.474;2022-10-16T10:34:39;18.06;82.53
12907;DHT22;6521;50.498;8.474;2022-10-16T10:40:40;19.01;78.45
12907;DHT22;6521;50.498;8.474;2022-10-16T10:58:01;19.74;72.48
12907;DHT22;6521;50.498;8.474;2022-10-16T11:06:16;19.93;71.34
12907;DHT22;6521;50.498;8.474;2022-10-16T11:08:53;20.06;70.66
12907;DHT22;6521;50.498;8.474;2022-10-16T11:11:35;19.60;71.36
12907;DHT22;6521;50.498;8.474;2022-10-16T11:14:15;19.50;72.15
12907;DHT22;6521;50.498;8.474;2022-10-16T11:17:04;19.69;71.19
12907;DHT22;6521;50.498;8.474;2022-10-16T11:19:44;19.98;71.08
12907;DHT22;6521;50.498;8.474;2022-10-16T11:22:56;19.83;70.56
12907;DHT22;6521;50.498;8.474;2022-10-16T11:25:33;19.74;70.74
12907;DHT22;6521;50.498;8.474;2022-10-16T11:28:11;19.69;70.90
12907;DHT22;6521;50.498;8.474;2022-10-16T11:30:47;19.43;71.73
12907;DHT22;6521;50.498;8.474;2022-10-16T11:33:31;19.40;73.48
12907;DHT22;6521;50.498;8.474;2022-10-16T11:36:17;19.70;72.34
12907;DHT22;6521;50.498;8.474;2022-10-16T11:47:37;20.10;69.40
12907;DHT22;6521;50.498;8.474;2022-10-16T11:50:36;20.08;71.02
12907;DHT22;6521;50.498;8.474;2022-10-16T11:53:28;20.06;70.43
12907;DHT22;6521;50.498;8.474;2022-10-16T11:56:03;19.71;71.28
12907;DHT22;6521;50.498;8.474;2022-10-16T12:01:31;19.97;72.70
12907;DHT22;6521;50.498;8.474;2022-10-16T12:06:52;20.51;71.11
12907;DHT22;6521;50.498;8.474;2022-10-16T12:09:29;20.61;69.77
12907;DHT22;6521;50.498;8.474;2022-10-16T12:12:01;20.66;69.81
12907;DHT22;6521;50.498;8.474;2022-10-16T12:17:21;21.10;68.92
12907;DHT22;6521;50.498;8.474;2022-10-16T12:22:49;21.31;66.44
12907;DHT22;6521;50.498;8.474;2022-10-16T12:28:17;21.34;67.17
12907;DHT22;6521;50.498;8.474;2022-10-16T12:30:55;21.11;68.16
12907;DHT22;6521;50.498;8.474;2022-10-16T12:33:29;20.93;67.90
12907;DHT22;6521;50.498;8.474;2022-10-16T12:36:03;20.75;67.84
12907;DHT22;6521;50.498;8.474;2022-10-16T12:41:30;20.42;70.05
12907;DHT22;6521;50.498;8.474;2022-10-16T12:44:01;20.53;71.13
12907;DHT22;6521;50.498;8.474;2022-10-16T12:49:21;20.45;70.87
12907;DHT22;6521;50.498;8.474;2022-10-16T12:51:52;20.53;68.35
12907;DHT22;6521;50.498;8.474;2022-10-16T13:11:42;19.87;72.22
12907;DHT22;6521;50.498;8.474;2022-10-16T13:15:09;19.84;70.14
12907;DHT22;6521;50.498;8.474;2022-10-16T13:20:51;19.59;71.56
12907;DHT22;6521;50.498;8.474;2022-10-16T13:28:53;19.40;73.59
12907;DHT22;6521;50.498;8.474;2022-10-16T13:31:24;19.42;73.92
12907;DHT22;6521;50.498;8.474;2022-10-16T13:33:57;19.45;73.57
12907;DHT22;6521;50.498;8.474;2022-10-16T13:36:34;19.46;74.43
12907;DHT22;6521;50.498;8.474;2022-10-16T13:39:21;19.40;73.39
12907;DHT22;6521;50.498;8.474;2022-10-16T13:42:05;19.38;74.13
12907;DHT22;6521;50.498;8.474;2022-10-16T13:44:41;19.36;74.16
12907;DHT22;6521;50.498;8.474;2022-10-16T13:50:06;19.39;74.44
12907;DHT22;6521;50.498;8.474;2022-10-16T13:52:40;19.50;74.38
12907;DHT22;6521;50.498;8.474;2022-10-16T13:55:12;19.67;73.19
12907;DHT22;6521;50.498;8.474;2022-10-16T13:57:43;19.73;73.06
12907;DHT22;6521;50.498;8.474;2022-10-16T14:00:23;19.91;73.04
12907;DHT22;6521;50.498;8.474;2022-10-16T14:03:11;20.13;72.02
12907;DHT22;6521;50.498;8.474;2022-10-16T14:05:52;20.08;71.51
12907;DHT22;6521;50.498;8.474;2022-10-16T14:08:24;20.24;71.92
12907;DHT22;6521;50.498;8.474;2022-10-16T14:10:58;20.32;70.87
12907;DHT22;6521;50.498;8.474;2022-10-16T14:13:45;20.20;70.66
12907;DHT22;6521;50.498;8.474;2022-10-16T14:16:19;19.98;71.04
12907;DHT22;6521;50.498;8.474;2022-10-16T14:19:02;19.77;71.67
12907;DHT22;6521;50.498;8.474;2022-10-16T14:21:34;19.65;72.82
12907;DHT22;6521;50.498;8.474;2022-10-16T14:27:02;19.53;74.85
12907;DHT22;6521;50.498;8.474;2022-10-16T14:29:32;19.48;73.99
12907;DHT22;6521;50.498;8.474;2022-10-16T14:32:05;19.46;74.37
12907;DHT22;6521;50.498;8.474;2022-10-16T14:34:38;19.45;74.50
12907;DHT22;6521;50.498;8.474;2022-10-16T14:37:30;19.39;75.07
12907;DHT22;6521;50.498;8.474;2022-10-16T14:40:02;19.28;75.41
12907;DHT22;6521;50.498;8.474;2022-10-16T14:42:32;19.26;75.27
12907;DHT22;6521;50.498;8.474;2022-10-16T14:45:08;19.12;74.87
12907;DHT22;6521;50.498;8.474;2022-10-16T14:47:53;19.15;75.47
12907;DHT22;6521;50.498;8.474;2022-10-16T14:50:24;19.18;75.42
12907;DHT22;6521;50.498;8.474;2022-10-16T14:52:55;19.18;76.62
12907;DHT22;6521;50.498;8.474;2022-10-16T14:55:26;19.19;75.95
12907;DHT22;6521;50.498;8.474;2022-10-16T14:57:57;19.09;75.07
12907;DHT22;6521;50.498;8.474;2022-10-16T15:00:28;19.02;75.85
12907;DHT22;6521;50.498;8.474;2022-10-16T15:02:58;19.00;76.02
12907;DHT22;6521;50.498;8.474;2022-10-16T15:05:29;18.98;74.92
12907;DHT22;6521;50.498;8.474;2022-10-16T15:08:02;18.94;75.13
12907;DHT22;6521;50.498;8.474;2022-10-16T15:10:39;18.83;75.62
12907;DHT22;6521;50.498;8.474;2022-10-16T15:13:13;18.84;75.42
12907;DHT22;6521;50.498;8.474;2022-10-16T15:15:46;18.77;75.47
12907;DHT22;6521;50.498;8.474;2022-10-16T15:18:16;18.68;75.95
12907;DHT22;6521;50.498;8.474;2022-10-16T15:20:51;18.71;75.69
12907;DHT22;6521;50.498;8.474;2022-10-16T15:23:22;18.70;76.21
12907;DHT22;6521;50.498;8.474;2022-10-16T15:25:56;18.64;76.61
12907;DHT22;6521;50.498;8.474;2022-10-16T15:28:26;18.63;75.77
12907;DHT22;6521;50.498;8.474;2022-10-16T15:30:57;18.54;75.75
12907;DHT22;6521;50.498;8.474;2022-10-16T15:33:28;18.43;76.65
12907;DHT22;6521;50.498;8.474;2022-10-16T15:36:03;18.37;76.72
12907;DHT22;6521;50.498;8.474;2022-10-16T15:38:34;18.34;77.10
12907;DHT22;6521;50.498;8.474;2022-10-16T15:41:05;18.30;77.33
12907;DHT22;6521;50.498;8.474;2022-10-16T15:43:36;18.25;77.51
12907;DHT22;6521;50.498;8.474;2022-10-16T15:46:11;18.19;77.83
12907;DHT22;6521;50.498;8.474;2022-10-16T15:48:42;18.12;78.48
12907;DHT22;6521;50.498;8.474;2022-10-16T15:51:13;18.06;78.58
12907;DHT22;6521;50.498;8.474;2022-10-16T15:53:45;17.96;78.99
12907;DHT22;6521;50.498;8.474;2022-10-16T15:56:17;17.99;79.12
12907;DHT22;6521;50.498;8.474;2022-10-16T15:58:48;17.98;79.32
12907;DHT22;6521;50.498;8.474;2022-10-16T16:01:18;17.91;79.58
12907;DHT22;6521;50.498;8.474;2022-10-16T16:03:52;17.89;79.89
12907;DHT22;6521;50.498;8.474;2022-10-16T16:06:23;17.84;79.98
12907;DHT22;6521;50.498;8.474;2022-10-16T16:08:54;17.78;80.40
12907;DHT22;6521;50.498;8.474;2022-10-16T16:11:25;17.78;80.22
12907;DHT22;6521;50.498;8.474;2022-10-16T16:13:56;17.77;80.41
12907;DHT22;6521;50.498;8.474;2022-10-16T16:16:27;17.70;80.46
12907;DHT22;6521;50.498;8.474;2022-10-16T16:18:57;17.65;80.86
12907;DHT22;6521;50.498;8.474;2022-10-16T16:21:28;17.60;80.96
12907;DHT22;6521;50.498;8.474;2022-10-16T16:23:59;17.53;81.28
12907;DHT22;6521;50.498;8.474;2022-10-16T16:26:30;17.48;81.49
12907;DHT22;6521;50.498;8.474;2022-10-16T16:29:06;17.45;81.52
12907;DHT22;6521;50.498;8.474;2022-10-16T16:31:37;17.37;82.30
12907;DHT22;6521;50.498;8.474;2022-10-16T16:34:09;17.31;82.69
12907;DHT22;6521;50.498;8.474;2022-10-16T16:36:40;17.27;82.95
12907;DHT22;6521;50.498;8.474;2022-10-16T16:39:10;17.26;83.15
12907;DHT22;6521;50.498;8.474;2022-10-16T16:41:41;17.23;83.23
12907;DHT22;6521;50.498;8.474;2022-10-16T16:44:13;17.20;83.46
12907;DHT22;6521;50.498;8.474;2022-10-16T16:46:44;17.14;83.87
12907;DHT22;6521;50.498;8.474;2022-10-16T16:49:15;17.12;84.25
12907;DHT22;6521;50.498;8.474;2022-10-16T16:51:46;17.12;84.39
12907;DHT22;6521;50.498;8.474;2022-10-16T16:54:16;17.06;84.86
12907;DHT22;6521;50.498;8.474;2022-10-16T16:56:47;17.03;85.35
12907;DHT22;6521;50.498;8.474;2022-10-16T16:59:20;16.99;85.76
12907;DHT22;6521;50.498;8.474;2022-10-16T17:01:52;16.99;85.87
12907;DHT22;6521;50.498;8.474;2022-10-16T17:04:23;16.99;86.02
12907;DHT22;6521;50.498;8.474;2022-10-16T17:06:55;16.99;86.20
12907;DHT22;6521;50.498;8.474;2022-10-16T17:09:26;16.95;86.52
12907;DHT22;6521;50.498;8.474;2022-10-16T17:11:56;16.92;86.77
12907;DHT22;6521;50.498;8.474;2022-10-16T17:14:27;16.92;87.00
12907;DHT22;6521;50.498;8.474;2022-10-16T17:16:58;16.89;87.17
12907;DHT22;6521;50.498;8.474;2022-10-16T17:19:29;16.93;87.28
12907;DHT22;6521;50.498;8.474;2022-10-16T17:21:59;16.87;87.42
12907;DHT22;6521;50.498;8.474;2022-10-16T17:24:30;16.87;87.62
12907;DHT22;6521;50.498;8.474;2022-10-16T17:27:01;16.86;87.76
12907;DHT22;6521;50.498;8.474;2022-10-16T17:29:31;16.86;87.70
12907;DHT22;6521;50.498;8.474;2022-10-16T17:32:02;16.89;87.50
12907;DHT22;6521;50.498;8.474;2022-10-16T17:34:33;16.89;87.80
12907;DHT22;6521;50.498;8.474;2022-10-16T17:37:05;16.83;87.79
12907;DHT22;6521;50.498;8.474;2022-10-16T17:39:35;16.83;87.96
12907;DHT22;6521;50.498;8.474;2022-10-16T17:42:06;16.82;88.01
12907;DHT22;6521;50.498;8.474;2022-10-16T17:44:37;16.79;88.07
12907;DHT22;6521;50.498;8.474;2022-10-16T17:47:07;16.80;88.08
12907;DHT22;6521;50.498;8.474;2022-10-16T17:49:39;16.75;88.42
12907;DHT22;6521;50.498;8.474;2022-10-16T17:52:10;16.69;88.59
12907;DHT22;6521;50.498;8.474;2022-10-16T17:54:41;16.71;88.49
12907;DHT22;6521;50.498;8.474;2022-10-16T17:57:11;16.68;88.58
12907;DHT22;6521;50.498;8.474;2022-10-16T17:59:42;16.65;88.71
12907;DHT22;6521;50.498;8.474;2022-10-16T18:02:13;16.55;88.48
12907;DHT22;6521;50.498;8.474;2022-10-16T18:04:44;16.52;88.34
12907;DHT22;6521;50.498;8.474;2022-10-16T18:07:15;16.45;88.26